sensor_id;sensor_type;location;lat;lon;timestamp;P1;durP1;ratioP1;P2;durP2;ratioP2
70148;SDS011;57514;52.164;5.282;2023-08-07T00:00:04;10.95;;;2.45;;
70148;SDS011;57514;52.164;5.282;2023-08-07T00:02:34;11.88;;;2.83;;
70148;SDS011;57514;52.164;5.282;2023-08-07T00:05:01;10.02;;;2.10;;
70148;SDS011;57514;52.164;5.282;2023-08-07T00:07:29;10.55;;;2.33;;
70148;SDS011;57514;52.164;5.282;2023-08-07T00:09:56;10.63;;;2.30;;
70148;SDS011;57514;52.164;5.282;2023-08-07T00:12:23;14.95;;;2.65;;
70148;SDS011;57514;52.164;5.282;2023-08-07T00:14:51;10.23;;;2.92;;
70148;SDS011;57514;52.164;5.282;2023-08-07T00:17:18;13.77;;;2.35;;
70148;SDS011;57514;52.164;5.282;2023-08-07T00:19:45;12.70;;;2.90;;
70148;SDS011;57514;52.164;5.282;2023-08-07T00:22:12;16.70;;;2.63;;
70148;SDS011;57514;52.164;5.282;2023-08-07T00:24:40;11.55;;;2.88;;
70148;SDS011;57514;52.164;5.282;2023-08-07T00:27:07;18.25;;;2.72;;
70148;SDS011;57514;52.164;5.282;2023-08-07T00:29:36;19.42;;;2.97;;
70148;SDS011;57514;52.164;5.282;2023-08-07T00:32:04;15.50;;;2.80;;
70148;SDS011;57514;52.164;5.282;2023-08-07T00:34:31;13.77;;;2.55;;
70148;SDS011;57514;52.164;5.282;2023-08-07T00:36:59;10.98;;;3.00;;
70148;SDS011;57514;52.164;5.282;2023-08-07T00:39:26;7.78;;;1.92;;
70148;SDS011;57514;52.164;5.282;2023-08-07T00:41:53;9.35;;;2.40;;
70148;SDS011;57514;52.164;5.282;2023-08-07T00:44:21;10.40;;;2.20;;
70148;SDS011;57514;52.164;5.282;2023-08-07T00:46:49;8.05;;;2.22;;
70148;SDS011;57514;52.164;5.282;2023-08-07T00:49:17;11.00;;;2.47;;
70148;SDS011;57514;52.164;5.282;2023-08-07T00:51:45;9.35;;;2.88;;
70148;SDS011;57514;52.164;5.282;2023-08-07T00:54:14;11.15;;;2.88;;
70148;SDS011;57514;52.164;5.282;2023-08-07T00:56:43;14.35;;;2.97;;
70148;SDS011;57514;52.164;5.282;2023-08-07T00:59:11;13.32;;;3.53;;
70148;SDS011;57514;52.164;5.282;2023-08-07T01:01:39;9.88;;;2.75;;
70148;SDS011;57514;52.164;5.282;2023-08-07T01:04:07;13.07;;;2.38;;
70148;SDS011;57514;52.164;5.282;2023-08-07T01:06:34;20.77;;;3.40;;
70148;SDS011;57514;52.164;5.282;2023-08-07T01:09:01;11.88;;;3.25;;
70148;SDS011;57514;52.164;5.282;2023-08-07T01:11:45;10.18;;;2.70;;
70148;SDS011;57514;52.164;5.282;2023-08-07T01:14:24;10.82;;;2.67;;
70148;SDS011;57514;52.164;5.282;2023-08-07T01:16:59;10.02;;;3.00;;
70148;SDS011;57514;52.164;5.282;2023-08-07T01:19:28;12.50;;;2.80;;
70148;SDS011;57514;52.164;5.282;2023-08-07T01:22:08;13.38;;;2.72;;
70148;SDS011;57514;52.164;5.282;2023-08-07T01:24:38;16.38;;;3.42;;
70148;SDS011;57514;52.164;5.282;2023-08-07T01:27:19;18.17;;;3.17;;
70148;SDS011;57514;52.164;5.282;2023-08-07T01:29:57;11.77;;;3.17;;
70148;SDS011;57514;52.164;5.282;2023-08-07T01:35:03;11.85;;;3.03;;
70148;SDS011;57514;52.164;5.282;2023-08-07T01:37:34;14.55;;;2.70;;
70148;SDS011;57514;52.164;5.282;2023-08-07T01:40:02;13.45;;;2.83;;
70148;SDS011;57514;52.164;5.282;2023-08-07T01:42:32;11.30;;;2.75;;
70148;SDS011;57514;52.164;5.282;2023-08-07T01:45:00;14.68;;;2.58;;
70148;SDS011;57514;52.164;5.282;2023-08-07T01:47:28;16.70;;;3.60;;
70148;SDS011;57514;52.164;5.282;2023-08-07T01:49:56;15.20;;;3.80;;
70148;SDS011;57514;52.164;5.282;2023-08-07T01:52:24;12.55;;;2.65;;
70148;SDS011;57514;52.164;5.282;2023-08-07T01:54:51;12.65;;;2.53;;
70148;SDS011;57514;52.164;5.282;2023-08-07T01:57:18;14.60;;;3.00;;
70148;SDS011;57514;52.164;5.282;2023-08-07T01:59:46;12.32;;;2.60;;
70148;SDS011;57514;52.164;5.282;2023-08-07T02:02:13;13.07;;;3.03;;
70148;SDS011;57514;52.164;5.282;2023-08-07T02:04:41;12.18;;;2.75;;
70148;SDS011;57514;52.164;5.282;2023-08-07T02:07:08;10.88;;;3.13;;
70148;SDS011;57514;52.164;5.282;2023-08-07T02:09:35;18.92;;;3.25;;
70148;SDS011;57514;52.164;5.282;2023-08-07T02:12:03;14.20;;;2.90;;
70148;SDS011;57514;52.164;5.282;2023-08-07T02:14:30;11.98;;;2.78;;
70148;SDS011;57514;52.164;5.282;2023-08-07T02:16:57;11.45;;;2.67;;
70148;SDS011;57514;52.164;5.282;2023-08-07T02:19:24;11.77;;;2.65;;
70148;SDS011;57514;52.164;5.282;2023-08-07T02:21:52;14.43;;;2.85;;
70148;SDS011;57514;52.164;5.282;2023-08-07T02:24:19;11.10;;;2.58;;
70148;SDS011;57514;52.164;5.282;2023-08-07T02:26:46;13.07;;;2.95;;
70148;SDS011;57514;52.164;5.282;2023-08-07T02:29:13;14.45;;;2.78;;
70148;SDS011;57514;52.164;5.282;2023-08-07T02:31:40;15.02;;;3.13;;
70148;SDS011;57514;52.164;5.282;2023-08-07T02:34:08;14.10;;;2.75;;
70148;SDS011;57514;52.164;5.282;2023-08-07T02:36:35;10.90;;;3.03;;
70148;SDS011;57514;52.164;5.282;2023-08-07T02:39:03;13.25;;;2.60;;
70148;SDS011;57514;52.164;5.282;2023-08-07T02:41:31;12.77;;;2.80;;
70148;SDS011;57514;52.164;5.282;2023-08-07T02:43:59;11.15;;;2.85;;
70148;SDS011;57514;52.164;5.282;2023-08-07T02:46:27;10.02;;;2.70;;
70148;SDS011;57514;52.164;5.282;2023-08-07T02:48:54;10.38;;;2.92;;
70148;SDS011;57514;52.164;5.282;2023-08-07T02:51:21;12.00;;;3.17;;
70148;SDS011;57514;52.164;5.282;2023-08-07T02:53:48;18.60;;;3.35;;
70148;SDS011;57514;52.164;5.282;2023-08-07T02:56:16;11.90;;;2.80;;
70148;SDS011;57514;52.164;5.282;2023-08-07T02:58:43;12.85;;;2.33;;
70148;SDS011;57514;52.164;5.282;2023-08-07T03:01:10;11.02;;;2.85;;
70148;SDS011;57514;52.164;5.282;2023-08-07T03:03:38;10.88;;;2.42;;
70148;SDS011;57514;52.164;5.282;2023-08-07T03:06:05;13.10;;;2.90;;
70148;SDS011;57514;52.164;5.282;2023-08-07T03:08:32;9.48;;;2.60;;
70148;SDS011;57514;52.164;5.282;2023-08-07T03:11:00;10.85;;;2.70;;
70148;SDS011;57514;52.164;5.282;2023-08-07T03:13:27;7.50;;;1.88;;
70148;SDS011;57514;52.164;5.282;2023-08-07T03:16:01;7.45;;;2.10;;
70148;SDS011;57514;52.164;5.282;2023-08-07T03:18:28;10.70;;;1.83;;
70148;SDS011;57514;52.164;5.282;2023-08-07T03:20:56;8.75;;;2.35;;
70148;SDS011;57514;52.164;5.282;2023-08-07T03:23:23;8.90;;;2.25;;
70148;SDS011;57514;52.164;5.282;2023-08-07T03:26:09;11.30;;;2.50;;
70148;SDS011;57514;52.164;5.282;2023-08-07T03:28:46;11.77;;;2.50;;
70148;SDS011;57514;52.164;5.282;2023-08-07T03:31:15;10.05;;;2.65;;
70148;SDS011;57514;52.164;5.282;2023-08-07T03:33:42;10.52;;;2.28;;
70148;SDS011;57514;52.164;5.282;2023-08-07T03:36:12;7.68;;;2.60;;
70148;SDS011;57514;52.164;5.282;2023-08-07T03:38:40;10.63;;;2.40;;
70148;SDS011;57514;52.164;5.282;2023-08-07T03:41:08;5.85;;;2.50;;
70148;SDS011;57514;52.164;5.282;2023-08-07T03:43:37;9.60;;;2.28;;
70148;SDS011;57514;52.164;5.282;2023-08-07T03:46:04;9.48;;;2.60;;
70148;SDS011;57514;52.164;5.282;2023-08-07T03:48:31;8.73;;;2.13;;
70148;SDS011;57514;52.164;5.282;2023-08-07T03:51:01;9.48;;;2.30;;
70148;SDS011;57514;52.164;5.282;2023-08-07T03:53:29;7.43;;;2.10;;
70148;SDS011;57514;52.164;5.282;2023-08-07T03:55:57;10.73;;;2.38;;
70148;SDS011;57514;52.164;5.282;2023-08-07T03:58:24;10.05;;;1.92;;
70148;SDS011;57514;52.164;5.282;2023-08-07T04:00:51;11.60;;;2.30;;
70148;SDS011;57514;52.164;5.282;2023-08-07T04:03:19;9.13;;;2.33;;
70148;SDS011;57514;52.164;5.282;2023-08-07T04:05:51;9.63;;;2.35;;
70148;SDS011;57514;52.164;5.282;2023-08-07T04:08:21;10.30;;;1.92;;
70148;SDS011;57514;52.164;5.282;2023-08-07T04:11:01;10.48;;;2.38;;
70148;SDS011;57514;52.164;5.282;2023-08-07T04:13:29;9.90;;;2.40;;
70148;SDS011;57514;52.164;5.282;2023-08-07T04:15:56;15.75;;;3.17;;
70148;SDS011;57514;52.164;5.282;2023-08-07T04:18:24;10.73;;;2.53;;
70148;SDS011;57514;52.164;5.282;2023-08-07T04:20:52;11.23;;;2.60;;
70148;SDS011;57514;52.164;5.282;2023-08-07T04:23:20;11.55;;;2.35;;
70148;SDS011;57514;52.164;5.282;2023-08-07T04:25:48;13.38;;;2.67;;
70148;SDS011;57514;52.164;5.282;2023-08-07T04:28:15;9.95;;;1.95;;
70148;SDS011;57514;52.164;5.282;2023-08-07T04:30:43;15.00;;;2.63;;
70148;SDS011;57514;52.164;5.282;2023-08-07T04:33:10;10.73;;;2.63;;
70148;SDS011;57514;52.164;5.282;2023-08-07T04:35:39;17.00;;;2.90;;
70148;SDS011;57514;52.164;5.282;2023-08-07T04:38:06;12.05;;;2.70;;
70148;SDS011;57514;52.164;5.282;2023-08-07T04:40:33;13.02;;;2.92;;
70148;SDS011;57514;52.164;5.282;2023-08-07T04:43:00;9.80;;;2.80;;
70148;SDS011;57514;52.164;5.282;2023-08-07T04:45:28;11.07;;;3.15;;
70148;SDS011;57514;52.164;5.282;2023-08-07T04:47:55;10.18;;;2.67;;
70148;SDS011;57514;52.164;5.282;2023-08-07T04:50:23;11.65;;;2.67;;
70148;SDS011;57514;52.164;5.282;2023-08-07T04:52:51;11.77;;;2.60;;
70148;SDS011;57514;52.164;5.282;2023-08-07T04:55:19;12.10;;;2.67;;
70148;SDS011;57514;52.164;5.282;2023-08-07T04:57:46;15.98;;;3.28;;
70148;SDS011;57514;52.164;5.282;2023-08-07T05:00:14;14.88;;;3.13;;
70148;SDS011;57514;52.164;5.282;2023-08-07T05:02:41;12.77;;;2.75;;
70148;SDS011;57514;52.164;5.282;2023-08-07T05:05:09;11.57;;;2.78;;
70148;SDS011;57514;52.164;5.282;2023-08-07T05:07:37;13.68;;;3.15;;
70148;SDS011;57514;52.164;5.282;2023-08-07T05:10:04;9.73;;;2.90;;
70148;SDS011;57514;52.164;5.282;2023-08-07T05:12:32;13.05;;;3.15;;
70148;SDS011;57514;52.164;5.282;2023-08-07T05:14:59;7.93;;;2.22;;
70148;SDS011;57514;52.164;5.282;2023-08-07T05:17:26;7.53;;;2.13;;
70148;SDS011;57514;52.164;5.282;2023-08-07T05:19:54;10.07;;;2.65;;
70148;SDS011;57514;52.164;5.282;2023-08-07T05:22:21;9.60;;;2.45;;
70148;SDS011;57514;52.164;5.282;2023-08-07T05:24:48;9.18;;;2.67;;
70148;SDS011;57514;52.164;5.282;2023-08-07T05:27:16;11.05;;;2.60;;
70148;SDS011;57514;52.164;5.282;2023-08-07T05:29:43;10.60;;;2.45;;
70148;SDS011;57514;52.164;5.282;2023-08-07T05:32:14;9.50;;;2.58;;
70148;SDS011;57514;52.164;5.282;2023-08-07T05:34:43;12.45;;;2.53;;
70148;SDS011;57514;52.164;5.282;2023-08-07T05:37:10;9.25;;;2.40;;
70148;SDS011;57514;52.164;5.282;2023-08-07T05:39:38;8.05;;;2.65;;
70148;SDS011;57514;52.164;5.282;2023-08-07T05:42:05;15.13;;;2.50;;
70148;SDS011;57514;52.164;5.282;2023-08-07T05:44:34;12.85;;;2.83;;
70148;SDS011;57514;52.164;5.282;2023-08-07T05:47:01;8.77;;;2.60;;
70148;SDS011;57514;52.164;5.282;2023-08-07T05:49:28;12.85;;;2.70;;
70148;SDS011;57514;52.164;5.282;2023-08-07T05:51:55;10.02;;;3.05;;
70148;SDS011;57514;52.164;5.282;2023-08-07T05:54:23;12.77;;;3.17;;
70148;SDS011;57514;52.164;5.282;2023-08-07T05:56:50;16.55;;;2.85;;
70148;SDS011;57514;52.164;5.282;2023-08-07T05:59:18;12.65;;;2.97;;
70148;SDS011;57514;52.164;5.282;2023-08-07T06:01:45;14.65;;;3.20;;
70148;SDS011;57514;52.164;5.282;2023-08-07T06:04:12;11.43;;;2.67;;
70148;SDS011;57514;52.164;5.282;2023-08-07T06:06:40;13.48;;;2.85;;
70148;SDS011;57514;52.164;5.282;2023-08-07T06:09:09;14.43;;;3.15;;
70148;SDS011;57514;52.164;5.282;2023-08-07T06:11:36;9.38;;;2.50;;
70148;SDS011;57514;52.164;5.282;2023-08-07T06:14:03;14.32;;;2.90;;
70148;SDS011;57514;52.164;5.282;2023-08-07T06:16:33;11.35;;;2.95;;
70148;SDS011;57514;52.164;5.282;2023-08-07T06:19:00;11.90;;;2.80;;
70148;SDS011;57514;52.164;5.282;2023-08-07T06:21:31;14.68;;;3.00;;
70148;SDS011;57514;52.164;5.282;2023-08-07T06:23:59;13.93;;;3.03;;
70148;SDS011;57514;52.164;5.282;2023-08-07T06:26:26;12.43;;;3.28;;
70148;SDS011;57514;52.164;5.282;2023-08-07T06:28:54;13.90;;;3.55;;
70148;SDS011;57514;52.164;5.282;2023-08-07T06:31:21;12.05;;;2.67;;
70148;SDS011;57514;52.164;5.282;2023-08-07T06:33:49;11.25;;;2.90;;
70148;SDS011;57514;52.164;5.282;2023-08-07T06:36:16;12.75;;;3.20;;
70148;SDS011;57514;52.164;5.282;2023-08-07T06:38:43;12.02;;;2.97;;
70148;SDS011;57514;52.164;5.282;2023-08-07T06:41:10;15.32;;;3.60;;
70148;SDS011;57514;52.164;5.282;2023-08-07T06:43:38;12.07;;;2.60;;
70148;SDS011;57514;52.164;5.282;2023-08-07T06:46:04;13.23;;;2.95;;
70148;SDS011;57514;52.164;5.282;2023-08-07T06:48:32;16.17;;;3.63;;
70148;SDS011;57514;52.164;5.282;2023-08-07T06:50:59;13.57;;;3.10;;
70148;SDS011;57514;52.164;5.282;2023-08-07T06:53:26;11.13;;;3.05;;
70148;SDS011;57514;52.164;5.282;2023-08-07T06:55:54;13.70;;;2.58;;
70148;SDS011;57514;52.164;5.282;2023-08-07T06:58:23;14.07;;;2.50;;
70148;SDS011;57514;52.164;5.282;2023-08-07T07:00:50;10.55;;;2.92;;
70148;SDS011;57514;52.164;5.282;2023-08-07T07:03:17;9.75;;;2.78;;
70148;SDS011;57514;52.164;5.282;2023-08-07T07:05:45;11.63;;;3.05;;
70148;SDS011;57514;52.164;5.282;2023-08-07T07:08:12;13.32;;;3.40;;
70148;SDS011;57514;52.164;5.282;2023-08-07T07:10:39;11.73;;;3.15;;
70148;SDS011;57514;52.164;5.282;2023-08-07T07:13:06;10.75;;;2.95;;
70148;SDS011;57514;52.164;5.282;2023-08-07T07:15:35;7.82;;;2.67;;
70148;SDS011;57514;52.164;5.282;2023-08-07T07:18:03;10.15;;;2.92;;
70148;SDS011;57514;52.164;5.282;2023-08-07T07:20:30;9.20;;;2.78;;
70148;SDS011;57514;52.164;5.282;2023-08-07T07:22:58;9.27;;;2.85;;
70148;SDS011;57514;52.164;5.282;2023-08-07T07:25:25;9.52;;;2.40;;
70148;SDS011;57514;52.164;5.282;2023-08-07T07:27:52;10.38;;;2.80;;
70148;SDS011;57514;52.164;5.282;2023-08-07T07:30:20;14.77;;;2.90;;
70148;SDS011;57514;52.164;5.282;2023-08-07T07:32:49;11.10;;;2.33;;
70148;SDS011;57514;52.164;5.282;2023-08-07T07:35:16;10.38;;;3.08;;
70148;SDS011;57514;52.164;5.282;2023-08-07T07:37:43;10.75;;;3.20;;
70148;SDS011;57514;52.164;5.282;2023-08-07T07:40:11;14.68;;;3.10;;
70148;SDS011;57514;52.164;5.282;2023-08-07T07:42:38;12.98;;;3.80;;
70148;SDS011;57514;52.164;5.282;2023-08-07T07:45:06;14.43;;;3.22;;
70148;SDS011;57514;52.164;5.282;2023-08-07T07:47:33;15.20;;;3.67;;
70148;SDS011;57514;52.164;5.282;2023-08-07T07:50:07;12.93;;;3.25;;
70148;SDS011;57514;52.164;5.282;2023-08-07T07:52:35;11.15;;;3.10;;
70148;SDS011;57514;52.164;5.282;2023-08-07T07:55:02;16.60;;;3.35;;
70148;SDS011;57514;52.164;5.282;2023-08-07T07:57:29;12.85;;;2.72;;
70148;SDS011;57514;52.164;5.282;2023-08-07T07:59:58;13.82;;;3.20;;
70148;SDS011;57514;52.164;5.282;2023-08-07T08:02:25;11.00;;;2.90;;
70148;SDS011;57514;52.164;5.282;2023-08-07T08:04:52;10.90;;;2.88;;
70148;SDS011;57514;52.164;5.282;2023-08-07T08:07:19;17.17;;;2.92;;
70148;SDS011;57514;52.164;5.282;2023-08-07T08:09:47;13.00;;;2.95;;
70148;SDS011;57514;52.164;5.282;2023-08-07T08:12:14;9.20;;;2.38;;
70148;SDS011;57514;52.164;5.282;2023-08-07T08:14:41;10.32;;;2.60;;
70148;SDS011;57514;52.164;5.282;2023-08-07T08:17:22;10.77;;;2.72;;
70148;SDS011;57514;52.164;5.282;2023-08-07T08:19:49;7.80;;;2.40;;
70148;SDS011;57514;52.164;5.282;2023-08-07T08:22:17;8.05;;;2.10;;
70148;SDS011;57514;52.164;5.282;2023-08-07T08:24:45;10.10;;;2.00;;
70148;SDS011;57514;52.164;5.282;2023-08-07T08:27:14;9.55;;;2.40;;
70148;SDS011;57514;52.164;5.282;2023-08-07T08:29:43;9.90;;;2.17;;
70148;SDS011;57514;52.164;5.282;2023-08-07T08:32:12;7.93;;;2.00;;
70148;SDS011;57514;52.164;5.282;2023-08-07T08:34:41;10.55;;;2.53;;
70148;SDS011;57514;52.164;5.282;2023-08-07T08:37:08;11.77;;;2.50;;
70148;SDS011;57514;52.164;5.282;2023-08-07T08:39:37;8.70;;;2.30;;
70148;SDS011;57514;52.164;5.282;2023-08-07T08:42:05;10.13;;;2.30;;
70148;SDS011;57514;52.164;5.282;2023-08-07T08:44:32;10.10;;;2.38;;
70148;SDS011;57514;52.164;5.282;2023-08-07T08:47:06;12.88;;;2.67;;
70148;SDS011;57514;52.164;5.282;2023-08-07T08:49:36;9.40;;;2.25;;
70148;SDS011;57514;52.164;5.282;2023-08-07T08:52:09;9.13;;;2.13;;
70148;SDS011;57514;52.164;5.282;2023-08-07T08:54:36;8.52;;;1.95;;
70148;SDS011;57514;52.164;5.282;2023-08-07T08:57:04;8.88;;;2.25;;
70148;SDS011;57514;52.164;5.282;2023-08-07T08:59:33;9.65;;;2.25;;
70148;SDS011;57514;52.164;5.282;2023-08-07T09:02:00;11.32;;;3.00;;
70148;SDS011;57514;52.164;5.282;2023-08-07T09:04:27;11.73;;;2.50;;
70148;SDS011;57514;52.164;5.282;2023-08-07T09:06:54;9.75;;;2.60;;
70148;SDS011;57514;52.164;5.282;2023-08-07T09:09:22;8.63;;;2.03;;
70148;SDS011;57514;52.164;5.282;2023-08-07T09:11:50;11.00;;;2.40;;
70148;SDS011;57514;52.164;5.282;2023-08-07T09:14:20;8.15;;;2.25;;
70148;SDS011;57514;52.164;5.282;2023-08-07T09:16:49;7.43;;;2.28;;
70148;SDS011;57514;52.164;5.282;2023-08-07T09:19:17;9.90;;;2.30;;
70148;SDS011;57514;52.164;5.282;2023-08-07T09:21:45;9.60;;;2.03;;
70148;SDS011;57514;52.164;5.282;2023-08-07T09:24:13;8.75;;;2.22;;
70148;SDS011;57514;52.164;5.282;2023-08-07T09:26:44;10.68;;;2.40;;
70148;SDS011;57514;52.164;5.282;2023-08-07T09:29:12;8.93;;;2.35;;
70148;SDS011;57514;52.164;5.282;2023-08-07T09:31:39;12.52;;;2.70;;
70148;SDS011;57514;52.164;5.282;2023-08-07T09:34:11;7.15;;;2.10;;
70148;SDS011;57514;52.164;5.282;2023-08-07T09:36:42;9.15;;;2.33;;
70148;SDS011;57514;52.164;5.282;2023-08-07T09:39:10;12.32;;;2.22;;
70148;SDS011;57514;52.164;5.282;2023-08-07T09:41:37;9.95;;;2.35;;
70148;SDS011;57514;52.164;5.282;2023-08-07T09:44:09;9.95;;;2.35;;
70148;SDS011;57514;52.164;5.282;2023-08-07T09:46:43;14.27;;;2.70;;
70148;SDS011;57514;52.164;5.282;2023-08-07T09:49:11;11.70;;;2.72;;
70148;SDS011;57514;52.164;5.282;2023-08-07T09:51:45;11.07;;;2.25;;
70148;SDS011;57514;52.164;5.282;2023-08-07T09:54:13;12.20;;;2.83;;
70148;SDS011;57514;52.164;5.282;2023-08-07T09:56:41;9.80;;;2.38;;
70148;SDS011;57514;52.164;5.282;2023-08-07T09:59:08;10.48;;;2.97;;
70148;SDS011;57514;52.164;5.282;2023-08-07T10:01:38;11.60;;;2.70;;
70148;SDS011;57514;52.164;5.282;2023-08-07T10:04:06;9.93;;;2.22;;
70148;SDS011;57514;52.164;5.282;2023-08-07T10:06:34;8.88;;;2.30;;
70148;SDS011;57514;52.164;5.282;2023-08-07T10:09:01;9.30;;;2.60;;
70148;SDS011;57514;52.164;5.282;2023-08-07T10:11:30;10.00;;;2.20;;
70148;SDS011;57514;52.164;5.282;2023-08-07T10:13:58;11.18;;;2.30;;
70148;SDS011;57514;52.164;5.282;2023-08-07T10:16:26;9.38;;;2.42;;
70148;SDS011;57514;52.164;5.282;2023-08-07T10:18:56;10.68;;;2.63;;
70148;SDS011;57514;52.164;5.282;2023-08-07T10:21:24;8.25;;;1.88;;
70148;SDS011;57514;52.164;5.282;2023-08-07T10:23:52;5.32;;;1.85;;
70148;SDS011;57514;52.164;5.282;2023-08-07T10:26:20;7.88;;;2.13;;
70148;SDS011;57514;52.164;5.282;2023-08-07T10:28:49;10.43;;;2.60;;
70148;SDS011;57514;52.164;5.282;2023-08-07T10:31:18;9.68;;;2.03;;
70148;SDS011;57514;52.164;5.282;2023-08-07T10:33:46;10.60;;;2.38;;
70148;SDS011;57514;52.164;5.282;2023-08-07T10:36:15;9.98;;;2.50;;
70148;SDS011;57514;52.164;5.282;2023-08-07T10:38:43;9.07;;;2.17;;
70148;SDS011;57514;52.164;5.282;2023-08-07T10:41:14;10.80;;;3.10;;
70148;SDS011;57514;52.164;5.282;2023-08-07T10:43:42;8.90;;;2.00;;
70148;SDS011;57514;52.164;5.282;2023-08-07T10:46:14;10.10;;;2.25;;
70148;SDS011;57514;52.164;5.282;2023-08-07T10:48:43;10.05;;;2.88;;
70148;SDS011;57514;52.164;5.282;2023-08-07T10:51:13;14.98;;;3.10;;
70148;SDS011;57514;52.164;5.282;2023-08-07T10:53:42;7.78;;;2.13;;
70148;SDS011;57514;52.164;5.282;2023-08-07T10:56:17;8.02;;;1.90;;
70148;SDS011;57514;52.164;5.282;2023-08-07T10:58:55;8.90;;;2.30;;
70148;SDS011;57514;52.164;5.282;2023-08-07T11:03:57;9.30;;;1.95;;
70148;SDS011;57514;52.164;5.282;2023-08-07T11:06:32;9.18;;;2.00;;
70148;SDS011;57514;52.164;5.282;2023-08-07T11:09:01;8.35;;;1.83;;
70148;SDS011;57514;52.164;5.282;2023-08-07T11:11:34;9.25;;;2.30;;
70148;SDS011;57514;52.164;5.282;2023-08-07T11:14:10;8.38;;;2.40;;
70148;SDS011;57514;52.164;5.282;2023-08-07T11:16:38;6.25;;;2.05;;
70148;SDS011;57514;52.164;5.282;2023-08-07T11:19:06;8.63;;;1.90;;
70148;SDS011;57514;52.164;5.282;2023-08-07T11:21:33;8.63;;;1.95;;
70148;SDS011;57514;52.164;5.282;2023-08-07T11:24:01;9.23;;;2.20;;
70148;SDS011;57514;52.164;5.282;2023-08-07T11:26:29;10.63;;;2.90;;
70148;SDS011;57514;52.164;5.282;2023-08-07T11:28:56;8.52;;;2.13;;
70148;SDS011;57514;52.164;5.282;2023-08-07T11:31:24;10.25;;;2.10;;
70148;SDS011;57514;52.164;5.282;2023-08-07T11:33:52;9.88;;;2.33;;
70148;SDS011;57514;52.164;5.282;2023-08-07T11:36:20;7.35;;;1.90;;
70148;SDS011;57514;52.164;5.282;2023-08-07T11:38:48;8.88;;;2.08;;
70148;SDS011;57514;52.164;5.282;2023-08-07T11:41:16;9.13;;;2.13;;
70148;SDS011;57514;52.164;5.282;2023-08-07T11:43:43;9.57;;;2.50;;
70148;SDS011;57514;52.164;5.282;2023-08-07T11:46:11;6.93;;;2.20;;
70148;SDS011;57514;52.164;5.282;2023-08-07T11:48:40;7.53;;;2.30;;
70148;SDS011;57514;52.164;5.282;2023-08-07T11:51:08;7.93;;;2.15;;
70148;SDS011;57514;52.164;5.282;2023-08-07T11:53:36;8.10;;;2.10;;
70148;SDS011;57514;52.164;5.282;2023-08-07T11:56:05;10.27;;;2.67;;
70148;SDS011;57514;52.164;5.282;2023-08-07T11:58:37;10.85;;;2.40;;
70148;SDS011;57514;52.164;5.282;2023-08-07T12:01:10;8.18;;;2.30;;
70148;SDS011;57514;52.164;5.282;2023-08-07T12:03:38;8.32;;;2.00;;
70148;SDS011;57514;52.164;5.282;2023-08-07T12:06:08;7.82;;;1.85;;
70148;SDS011;57514;52.164;5.282;2023-08-07T12:08:39;8.18;;;2.10;;
70148;SDS011;57514;52.164;5.282;2023-08-07T12:11:08;8.25;;;2.00;;
70148;SDS011;57514;52.164;5.282;2023-08-07T12:13:37;7.00;;;1.85;;
70148;SDS011;57514;52.164;5.282;2023-08-07T12:16:08;6.57;;;1.65;;
70148;SDS011;57514;52.164;5.282;2023-08-07T12:18:37;4.88;;;1.40;;
70148;SDS011;57514;52.164;5.282;2023-08-07T12:21:06;5.82;;;1.85;;
70148;SDS011;57514;52.164;5.282;2023-08-07T12:23:34;5.82;;;1.70;;
70148;SDS011;57514;52.164;5.282;2023-08-07T12:26:02;8.57;;;2.42;;
70148;SDS011;57514;52.164;5.282;2023-08-07T12:28:34;6.50;;;1.70;;
70148;SDS011;57514;52.164;5.282;2023-08-07T12:31:02;6.07;;;1.67;;
70148;SDS011;57514;52.164;5.282;2023-08-07T12:33:30;6.53;;;1.75;;
70148;SDS011;57514;52.164;5.282;2023-08-07T12:35:58;6.68;;;1.60;;
70148;SDS011;57514;52.164;5.282;2023-08-07T12:38:28;6.68;;;1.70;;
70148;SDS011;57514;52.164;5.282;2023-08-07T12:40:56;5.60;;;1.67;;
70148;SDS011;57514;52.164;5.282;2023-08-07T12:43:24;5.47;;;1.77;;
70148;SDS011;57514;52.164;5.282;2023-08-07T12:45:51;7.15;;;1.98;;
70148;SDS011;57514;52.164;5.282;2023-08-07T12:48:19;6.50;;;2.28;;
70148;SDS011;57514;52.164;5.282;2023-08-07T12:50:47;5.47;;;1.33;;
70148;SDS011;57514;52.164;5.282;2023-08-07T12:53:14;5.75;;;1.50;;
70148;SDS011;57514;52.164;5.282;2023-08-07T12:55:41;8.20;;;1.85;;
70148;SDS011;57514;52.164;5.282;2023-08-07T12:58:09;6.68;;;1.77;;
70148;SDS011;57514;52.164;5.282;2023-08-07T13:00:36;5.97;;;1.50;;
70148;SDS011;57514;52.164;5.282;2023-08-07T13:03:03;5.40;;;1.70;;
70148;SDS011;57514;52.164;5.282;2023-08-07T13:05:31;9.35;;;1.90;;
70148;SDS011;57514;52.164;5.282;2023-08-07T13:08:03;6.55;;;1.90;;
70148;SDS011;57514;52.164;5.282;2023-08-07T13:10:31;7.32;;;1.60;;
70148;SDS011;57514;52.164;5.282;2023-08-07T13:13:02;7.00;;;1.55;;
70148;SDS011;57514;52.164;5.282;2023-08-07T13:15:32;5.75;;;1.60;;
70148;SDS011;57514;52.164;5.282;2023-08-07T13:18:00;7.53;;;1.85;;
70148;SDS011;57514;52.164;5.282;2023-08-07T13:20:27;7.43;;;1.70;;
70148;SDS011;57514;52.164;5.282;2023-08-07T13:23:00;6.55;;;1.60;;
70148;SDS011;57514;52.164;5.282;2023-08-07T13:25:29;5.45;;;1.45;;
70148;SDS011;57514;52.164;5.282;2023-08-07T13:27:56;7.45;;;1.70;;
70148;SDS011;57514;52.164;5.282;2023-08-07T13:30:23;9.77;;;1.83;;
70148;SDS011;57514;52.164;5.282;2023-08-07T13:32:51;5.60;;;1.40;;
70148;SDS011;57514;52.164;5.282;2023-08-07T13:35:18;4.88;;;1.42;;
70148;SDS011;57514;52.164;5.282;2023-08-07T13:37:45;4.10;;;1.38;;
70148;SDS011;57514;52.164;5.282;2023-08-07T13:40:12;5.25;;;1.50;;
70148;SDS011;57514;52.164;5.282;2023-08-07T13:42:40;7.03;;;1.73;;
70148;SDS011;57514;52.164;5.282;2023-08-07T13:45:07;5.38;;;1.50;;
70148;SDS011;57514;52.164;5.282;2023-08-07T13:47:36;5.57;;;1.67;;
70148;SDS011;57514;52.164;5.282;2023-08-07T13:50:04;4.32;;;1.50;;
70148;SDS011;57514;52.164;5.282;2023-08-07T13:52:35;3.50;;;1.33;;
70148;SDS011;57514;52.164;5.282;2023-08-07T13:55:02;5.47;;;1.80;;
70148;SDS011;57514;52.164;5.282;2023-08-07T13:57:29;6.25;;;1.50;;
70148;SDS011;57514;52.164;5.282;2023-08-07T13:59:57;5.68;;;1.55;;
70148;SDS011;57514;52.164;5.282;2023-08-07T14:02:24;7.15;;;1.73;;
70148;SDS011;57514;52.164;5.282;2023-08-07T14:04:51;5.50;;;1.80;;
70148;SDS011;57514;52.164;5.282;2023-08-07T14:07:18;6.55;;;1.35;;
70148;SDS011;57514;52.164;5.282;2023-08-07T14:09:45;6.38;;;1.70;;
70148;SDS011;57514;52.164;5.282;2023-08-07T14:12:12;2.75;;;1.30;;
70148;SDS011;57514;52.164;5.282;2023-08-07T14:14:39;6.57;;;1.60;;
70148;SDS011;57514;52.164;5.282;2023-08-07T14:17:07;4.43;;;1.30;;
70148;SDS011;57514;52.164;5.282;2023-08-07T14:19:34;6.45;;;1.73;;
70148;SDS011;57514;52.164;5.282;2023-08-07T14:22:01;7.10;;;1.83;;
70148;SDS011;57514;52.164;5.282;2023-08-07T14:24:28;3.97;;;1.40;;
70148;SDS011;57514;52.164;5.282;2023-08-07T14:26:56;5.95;;;1.90;;
70148;SDS011;57514;52.164;5.282;2023-08-07T14:29:23;6.80;;;1.70;;
70148;SDS011;57514;52.164;5.282;2023-08-07T14:31:50;6.68;;;1.67;;
70148;SDS011;57514;52.164;5.282;2023-08-07T14:34:17;4.25;;;1.40;;
70148;SDS011;57514;52.164;5.282;2023-08-07T14:36:45;5.95;;;1.60;;
70148;SDS011;57514;52.164;5.282;2023-08-07T14:39:12;3.58;;;1.60;;
70148;SDS011;57514;52.164;5.282;2023-08-07T14:41:39;4.75;;;1.52;;
70148;SDS011;57514;52.164;5.282;2023-08-07T14:44:06;4.00;;;1.48;;
70148;SDS011;57514;52.164;5.282;2023-08-07T14:46:33;5.88;;;1.73;;
70148;SDS011;57514;52.164;5.282;2023-08-07T14:49:00;4.88;;;1.40;;
70148;SDS011;57514;52.164;5.282;2023-08-07T14:51:28;4.50;;;1.55;;